Strona główna
METAR-TAF:

METAR-TAF

Lotnisko :

Grant County Airport

Petersburg, Wirginia Zachodnia, Stany Zjednoczone

Szerokość geograficzna: 38-59N, Długość geograficzna: 079-08W, wysokość: 293 m

Aktualna obserwacja pogody

Raport powstał 27 minut temu, godzina 02:15 UTC
Wiatr 8 kt od zachód
Temperatura 24°C
Wilgotność 65%
Ciśnienie 1011 hPa
Przerywane chmury na wysokości 12000 ft
zmętnienie

METAR: KW99 040215Z AUTO 28008KT M1/4SM HZ BKN120 24/17 A2985 RMK AO2 T02430166

czas: 22:42 (02:42 UTC)


TAF: brakujący

Obserwacja i prognoza pogody dla ponad 4000 lotnisk (raport METAR i TAF).

Dostępne stacje oznaczono żółtymi i czerwonymi punktami na mapie.

Najedź kursorem aby zobaczyć nazwę stacji.

Kliknij aby zobaczyć obserwacje i prognozy pogody.

Aby zmienić mapę: kliknij na zielony przycisk z czarnym krzyżykiem, aby powiększyć; na zielony przycisk z myślnikiem, aby pomniejszyć; na zielone strzałki, aby przejść do map sąsiednich.


METAR-TAF: